This is the latest recevied weather packets stored in our database for station/object KA1AL. If no packets are shown the sender has not sent any weather packets the latest 10 day(s).
| Time | Temp. | Humidity | Pressure | Rain* | Wind** | Luminosity | Snow |
|---|---|---|---|---|---|---|---|
| 1777946615 | 10.56° C | 81% | 1006.8 hPa | 0 mm | - | 0 W/m² | - |
| 1777946312 | 10° C | 84% | 1006.8 hPa | 0 mm | - | 0 W/m² | - |
| 1777946010 | 9.44° C | 84% | 1006.8 hPa | 0 mm | - | 0 W/m² | - |
| 1777945707 | 8.89° C | 90% | 1006.8 hPa | 0 mm | - | 0 W/m² | - |
| 1777945404 | 10° C | 87% | 1006.5 hPa | 0 mm | - | 0 W/m² | - |
| 1777945100 | 10.56° C | 82% | 1006.5 hPa | 0 mm | - | 0 W/m² | - |
| 1777944798 | 10.56° C | 82% | 1006.7 hPa | 0 mm | - | 0 W/m² | - |
| 1777944496 | 10° C | 82% | 1006.4 hPa | 0 mm | - | 0 W/m² | - |
| 1777944193 | 10° C | 84% | 1006.3 hPa | 0 mm | - | 0 W/m² | - |
| 1777943889 | 10° C | 83% | 1006.2 hPa | 0 mm | - | 0 W/m² | - |
| 1777943586 | 10° C | 82% | 1006.4 hPa | 0 mm | - | 0 W/m² | - |
| 1777943282 | 10° C | 83% | 1006.2 hPa | 0 mm | - | 0 W/m² | - |
| 1777942978 | 11.11° C | 81% | 1006.2 hPa | 0 mm | - | 0 W/m² | - |
| 1777942674 | 10.56° C | 79% | 1006.2 hPa | 0 mm | - | 0 W/m² | - |
| 1777942372 | 10° C | 84% | 1006.2 hPa | 0 mm | - | 0 W/m² | - |
| 1777942069 | 9.44° C | 85% | 1006 hPa | 0 mm | - | 0 W/m² | - |
| 1777941765 | 10° C | 84% | 1006.2 hPa | 0 mm | - | 0 W/m² | - |
| 1777941462 | 10.56° C | 82% | 1006 hPa | 0 mm | - | 0 W/m² | - |
| 1777941160 | 10.56° C | 80% | 1006 hPa | 0 mm | - | 0 W/m² | - |
| 1777940856 | 10.56° C | 81% | 1005.8 hPa | 0 mm | - | 0 W/m² | - |
| 1777940554 | 10° C | 82% | 1005.6 hPa | 0 mm | - | 0 W/m² | - |
| 1777940251 | 10° C | 83% | 1005.5 hPa | 0 mm | - | 0 W/m² | - |
| 1777939949 | 10.56° C | 80% | 1005.7 hPa | 0 mm | - | 0 W/m² | - |
| 1777939645 | 9.44° C | 84% | 1005.5 hPa | 0 mm | - | 0 W/m² | - |
| 1777939343 | 10.56° C | 81% | 1005.5 hPa | 0 mm | - | 0 W/m² | - |
* Rain latest hour (hover to see other rain measurements)
** Current wind speed in m/s (hover to see current wind gust speed)